Time;durP1;ratioP1;P1;durP2;ratioP2;P2;SDS_P1;SDS_P2;PMS_P1;PMS_P2;Temp;Humidity;BMP_temperature;BMP_pressure;BME280_temperature;BME280_humidity;BME280_pressure;Samples;Min_cycle;Max_cycle;Signal;HPM_P1;HPM_P2
2023/08/14 00:00:01;;;;;;;7.30;6.00;;;;;;;17.34;100.00;100943.42;105975;1254;59657;-67
2023/08/14 00:02:39;;;;;;;7.20;5.80;;;;;;;17.27;100.00;100943.86;105539;1256;60327;-66
2023/08/14 00:05:07;;;;;;;7.60;5.50;;;;;;;17.22;100.00;100942.39;105657;1251;73029;-65
2023/08/14 00:07:35;;;;;;;7.70;6.20;;;;;;;17.21;100.00;100942.09;105720;1252;67466;-67
2023/08/14 00:10:03;;;;;;;7.60;5.80;;;;;;;17.21;100.00;100944.67;105955;1252;72756;-67
2023/08/14 00:12:31;;;;;;;7.90;6.00;;;;;;;17.26;100.00;100941.89;105642;1256;61252;-65
2023/08/14 00:14:59;;;;;;;8.30;5.50;;;;;;;17.25;100.00;100940.59;105731;1256;59629;-65
2023/08/14 00:17:26;;;;;;;11.00;6.70;;;;;;;17.17;100.00;100943.34;105509;1257;73121;-67
2023/08/14 00:19:54;;;;;;;8.00;5.90;;;;;;;17.12;100.00;100945.03;105405;1257;66219;-66
2023/08/14 00:22:22;;;;;;;7.10;6.10;;;;;;;17.06;100.00;100944.27;105488;1252;72759;-65
2023/08/14 00:24:50;;;;;;;6.40;5.70;;;;;;;16.98;100.00;100945.48;105720;1267;60815;-64
2023/08/14 00:27:18;;;;;;;7.00;5.30;;;;;;;16.95;100.00;100945.30;105683;1256;59634;-65
2023/08/14 00:29:46;;;;;;;7.60;6.20;;;;;;;16.94;100.00;100944.05;105810;1251;71823;-65
2023/08/14 00:32:13;;;;;;;7.10;6.30;;;;;;;16.97;100.00;100939.13;105511;1257;66416;-64
2023/08/14 00:34:42;;;;;;;6.80;6.10;;;;;;;16.99;100.00;100938.55;105794;1256;70917;-63
2023/08/14 00:37:10;;;;;;;7.20;5.50;;;;;;;16.96;100.00;100935.13;105636;1254;61734;-64
2023/08/14 00:39:38;;;;;;;6.60;5.20;;;;;;;16.98;100.00;100935.53;105717;1266;60174;-64
2023/08/14 00:42:06;;;;;;;7.10;5.80;;;;;;;17.02;100.00;100939.16;105906;1253;71830;-65
2023/08/14 00:44:33;;;;;;;6.60;5.80;;;;;;;17.04;100.00;100938.09;105718;1251;67598;-64
2023/08/14 00:47:02;;;;;;;7.90;6.10;;;;;;;17.04;100.00;100939.46;105728;1257;71444;-63
2023/08/14 00:49:29;;;;;;;8.20;5.80;;;;;;;17.01;100.00;100941.79;105756;1251;61711;-66
2023/08/14 00:51:57;;;;;;;9.00;6.10;;;;;;;16.94;100.00;100938.66;105928;1257;61376;-66
2023/08/14 00:54:26;;;;;;;6.80;6.10;;;;;;;16.87;100.00;100940.88;105804;1253;72504;-65
2023/08/14 00:56:53;;;;;;;7.10;5.90;;;;;;;16.83;100.00;100939.14;105840;1252;66072;-64
2023/08/14 00:59:21;;;;;;;8.10;5.40;;;;;;;16.79;100.00;100939.84;105740;1256;71447;-66
2023/08/14 01:01:49;;;;;;;7.00;5.50;;;;;;;16.77;100.00;100941.34;105255;1253;61753;-68
2023/08/14 01:04:17;;;;;;;10.10;5.80;;;;;;;16.76;100.00;100942.20;105608;1251;60094;-64
2023/08/14 01:06:45;;;;;;;10.30;6.20;;;;;;;16.72;100.00;100944.25;105687;1251;71801;-63
2023/08/14 01:09:13;;;;;;;10.70;6.50;;;;;;;16.72;100.00;100944.21;105894;1254;67058;-66
2023/08/14 01:11:54;;;;;;;7.40;6.60;;;;;;;16.73;100.00;100944.98;105558;1256;72741;-64
2023/08/14 01:14:28;;;;;;;7.60;6.80;;;;;;;16.68;100.00;100951.98;105626;1256;60462;-64
2023/08/14 01:25:20;;;;;;;7.80;6.30;;;;;;;16.39;100.00;100954.67;102261;1292;600937;-65
2023/08/14 01:27:49;;;;;;;7.90;7.00;;;;;;;16.32;100.00;100955.61;104773;1270;59517;-64
2023/08/14 01:30:17;;;;;;;6.70;6.00;;;;;;;16.25;100.00;100959.85;104612;1266;59695;-64
2023/08/14 01:32:45;;;;;;;6.60;5.90;;;;;;;16.19;100.00;100961.52;104780;1270;72232;-63
2023/08/14 01:35:14;;;;;;;6.70;5.80;;;;;;;16.13;100.00;100965.08;104858;1266;67939;-64
2023/08/14 01:37:59;;;;;;;6.50;5.70;;;;;;;16.09;100.00;100962.39;104305;1265;222652;-65
2023/08/14 01:40:40;;;;;;;7.60;6.10;;;;;;;16.04;100.00;100962.23;105074;1268;61728;-64
2023/08/14 01:43:11;;;;;;;8.10;7.00;;;;;;;16.00;100.00;100968.88;104860;1263;59286;-64
2023/08/14 01:45:38;;;;;;;8.10;6.60;;;;;;;15.99;100.00;100973.32;105118;1267;72262;-67
2023/08/14 01:48:07;;;;;;;7.40;6.30;;;;;;;15.95;100.00;100976.96;108436;1261;65681;-65
2023/08/14 01:50:34;;;;;;;6.80;5.50;;;;;;;15.92;100.00;100974.21;108536;1261;71455;-68
2023/08/14 01:53:02;;;;;;;8.20;6.00;;;;;;;15.89;100.00;100974.80;108451;1265;60496;-65
2023/08/14 01:55:30;;;;;;;7.20;5.80;;;;;;;15.86;100.00;100978.56;108539;1262;58747;-65
2023/08/14 01:57:57;;;;;;;7.60;5.60;;;;;;;15.83;100.00;100977.83;108515;1263;73655;-65
2023/08/14 02:00:26;;;;;;;6.30;5.70;;;;;;;15.82;100.00;100979.69;108487;1262;65941;-66
2023/08/14 02:02:54;;;;;;;9.00;5.80;;;;;;;15.81;100.00;100984.27;108502;1263;71914;-65
2023/08/14 02:05:21;;;;;;;8.40;5.80;;;;;;;15.79;100.00;100983.00;108438;1261;60497;-66
2023/08/14 02:07:49;;;;;;;7.10;5.60;;;;;;;15.78;100.00;100980.08;108485;1262;60078;-66
2023/08/14 02:10:20;;;;;;;6.70;5.10;;;;;;;15.76;100.00;100981.75;108480;1261;73075;-65
2023/08/14 02:12:47;;;;;;;6.20;4.90;;;;;;;15.75;100.00;100984.55;108453;1262;67356;-67
2023/08/14 02:15:16;;;;;;;8.70;5.20;;;;;;;15.75;100.00;100987.03;108515;1261;71434;-65
2023/08/14 02:17:44;;;;;;;6.00;5.30;;;;;;;15.76;100.00;100985.75;108532;1263;60150;-69
2023/08/14 02:20:11;;;;;;;7.50;5.10;;;;;;;15.79;100.00;100989.44;108957;1256;58826;-65
2023/08/14 02:22:39;;;;;;;7.20;6.00;;;;;;;15.80;100.00;100992.83;108900;1255;71826;-65
2023/08/14 02:25:07;;;;;;;8.30;5.30;;;;;;;15.85;100.00;100997.78;108862;1255;68136;-65
2023/08/14 02:27:35;;;;;;;8.70;6.00;;;;;;;15.87;100.00;100999.77;108835;1255;71872;-69
2023/08/14 02:30:03;;;;;;;8.70;5.50;;;;;;;15.91;100.00;101000.26;108813;1256;61921;-65
2023/08/14 02:32:31;;;;;;;7.90;5.40;;;;;;;15.95;100.00;101002.58;108899;1255;58873;-69
2023/08/14 02:34:59;;;;;;;8.80;5.20;;;;;;;15.96;100.00;101000.67;108960;1256;71195;-64
2023/08/14 02:37:26;;;;;;;6.60;5.60;;;;;;;15.97;100.00;101004.02;108906;1255;66019;-65
2023/08/14 02:39:54;;;;;;;6.90;6.30;;;;;;;16.00;100.00;101008.23;108850;1255;71476;-65
2023/08/14 02:42:22;;;;;;;7.90;5.90;;;;;;;16.04;100.00;101011.03;108831;1256;60545;-66
2023/08/14 02:44:50;;;;;;;13.50;6.50;;;;;;;16.11;100.00;101010.52;108909;1256;59647;-65
2023/08/14 02:47:18;;;;;;;6.60;5.80;;;;;;;16.20;100.00;101012.75;108933;1256;72224;-65
2023/08/14 02:49:46;;;;;;;8.20;6.50;;;;;;;16.27;100.00;101009.20;108756;1256;66210;-66
2023/08/14 02:52:13;;;;;;;8.00;6.60;;;;;;;16.35;100.00;101011.59;108872;1256;71414;-66
2023/08/14 02:54:41;;;;;;;9.30;6.90;;;;;;;16.43;100.00;101012.91;108979;1255;60236;-66
2023/08/14 02:57:09;;;;;;;12.00;7.10;;;;;;;16.53;100.00;101013.55;108942;1256;60135;-65
2023/08/14 02:59:36;;;;;;;11.10;7.00;;;;;;;16.62;100.00;101014.64;108844;1255;71837;-68
2023/08/14 03:02:04;;;;;;;8.20;6.30;;;;;;;16.72;100.00;101015.90;108892;1255;65742;-65
2023/08/14 03:04:32;;;;;;;7.10;6.40;;;;;;;16.84;100.00;101014.27;108841;1256;72899;-65
2023/08/14 03:07:00;;;;;;;7.50;6.70;;;;;;;17.08;100.00;101017.27;108915;1255;61743;-65
2023/08/14 03:09:27;;;;;;;7.40;6.30;;;;;;;17.29;100.00;101024.58;108871;1255;58843;-67
2023/08/14 03:11:55;;;;;;;8.60;7.70;;;;;;;17.44;100.00;101027.31;108878;1256;72138;-65
2023/08/14 03:14:23;;;;;;;13.60;10.10;;;;;;;17.54;100.00;101025.60;108877;1256;66309;-65
2023/08/14 03:16:50;;;;;;;13.20;10.00;;;;;;;17.62;100.00;101026.17;108860;1256;72663;-65
2023/08/14 03:19:18;;;;;;;9.90;8.30;;;;;;;17.71;100.00;101023.38;108870;1255;61724;-65
2023/08/14 03:21:50;;;;;;;11.00;8.50;;;;;;;17.83;100.00;101031.13;108913;1255;59447;-66
2023/08/14 03:24:18;;;;;;;8.20;7.30;;;;;;;17.99;100.00;101034.15;108905;1255;73100;-65
2023/08/14 03:26:46;;;;;;;7.80;6.90;;;;;;;18.21;100.00;101034.34;108785;1255;67036;-69
2023/08/14 03:29:14;;;;;;;8.80;7.40;;;;;;;18.41;100.00;101033.32;108916;1256;71227;-65
2023/08/14 03:31:41;;;;;;;8.20;6.60;;;;;;;18.75;100.00;101035.07;108868;1256;58864;-66
2023/08/14 03:34:10;;;;;;;8.90;7.30;;;;;;;19.39;100.00;101033.58;108839;1256;59124;-66
2023/08/14 03:36:38;;;;;;;7.60;6.50;;;;;;;20.38;100.00;101033.78;108890;1255;73115;-65
2023/08/14 03:39:05;;;;;;;7.40;6.40;;;;;;;21.64;100.00;101030.95;108805;1256;65906;-66
2023/08/14 03:41:33;;;;;;;6.60;6.00;;;;;;;23.10;100.00;101029.89;108844;1256;71659;-69
2023/08/14 03:44:02;;;;;;;7.30;6.60;;;;;;;24.54;100.00;101018.34;108846;1255;59448;-65
2023/08/14 03:46:29;;;;;;;8.90;8.10;;;;;;;25.89;100.00;100992.30;108845;1255;58907;-66
2023/08/14 03:48:57;;;;;;;8.60;7.60;;;;;;;27.25;100.00;100955.77;108883;1256;73066;-66
2023/08/14 03:51:25;;;;;;;9.60;6.80;;;;;;;28.30;100.00;100922.45;108891;1256;66938;-68
2023/08/14 03:53:52;;;;;;;8.10;6.20;;;;;;;29.35;100.00;100901.82;108948;1255;72997;-65
2023/08/14 03:56:20;;;;;;;6.40;5.00;;;;;;;30.30;100.00;100894.02;108808;1258;58846;-63
2023/08/14 03:58:48;;;;;;;7.50;5.00;;;;;;;31.15;100.00;100895.81;108797;1255;58849;-64
2023/08/14 04:01:15;;;;;;;6.40;4.90;;;;;;;31.85;100.00;100892.32;108923;1256;73644;-64
2023/08/14 04:03:45;;;;;;;5.30;4.10;;;;;;;32.56;100.00;100887.98;108852;1256;66962;-63
2023/08/14 04:06:13;;;;;;;5.40;3.90;;;;;;;33.26;100.00;100889.18;108834;1255;71420;-64
2023/08/14 04:08:40;;;;;;;5.60;4.00;;;;;;;33.74;99.47;100887.52;108886;1258;57319;-64
2023/08/14 04:11:09;;;;;;;5.70;4.10;;;;;;;34.12;92.99;100885.81;108854;1255;57662;-65
2023/08/14 04:13:37;;;;;;;5.60;4.20;;;;;;;34.50;84.83;100892.23;108925;1256;63374;-63
2023/08/14 04:16:04;;;;;;;4.50;4.00;;;;;;;34.82;76.66;100893.48;108855;1255;57884;-63
2023/08/14 04:18:32;;;;;;;4.90;4.00;;;;;;;35.11;71.66;100890.64;108971;1255;71370;-63
2023/08/14 04:21:00;;;;;;;4.70;3.80;;;;;;;35.35;69.02;100892.48;108899;1255;57910;-65
2023/08/14 04:23:28;;;;;;;5.60;3.90;;;;;;;35.72;64.77;100890.79;108850;1256;57256;-64
2023/08/14 04:25:56;;;;;;;5.20;4.70;;;;;;;36.08;59.58;100887.52;108970;1256;64235;-63
2023/08/14 04:28:24;;;;;;;6.40;4.00;;;;;;;36.35;55.93;100891.79;108846;1255;58427;-64
2023/08/14 04:30:51;;;;;;;5.50;4.20;;;;;;;36.65;52.97;100893.77;108929;1255;64078;-66
2023/08/14 04:33:19;;;;;;;4.90;4.50;;;;;;;36.89;49.97;100895.24;108858;1256;57468;-66
2023/08/14 04:35:47;;;;;;;5.80;4.20;;;;;;;37.01;48.26;100896.35;108957;1253;57900;-64
2023/08/14 04:38:15;;;;;;;5.50;4.20;;;;;;;37.07;46.13;100897.44;109170;1253;64216;-63
2023/08/14 04:40:46;;;;;;;5.20;4.70;;;;;;;37.11;46.12;100895.01;108959;1253;57435;-66
2023/08/14 04:43:15;;;;;;;5.70;5.10;;;;;;;37.29;45.76;100897.25;108901;1255;63946;-64
2023/08/14 04:45:42;;;;;;;5.60;4.60;;;;;;;37.51;44.30;100896.05;109015;1255;57875;-64
2023/08/14 04:48:10;;;;;;;5.50;4.30;;;;;;;37.73;43.08;100896.84;108966;1253;57515;-63
2023/08/14 04:50:39;;;;;;;5.50;4.60;;;;;;;37.85;41.70;100893.86;108958;1253;62959;-63
2023/08/14 04:53:07;;;;;;;5.20;4.50;;;;;;;37.91;41.46;100893.39;108881;1253;67527;-64
2023/08/14 04:55:37;;;;;;;;;;;;;;;38.00;41.01;100893.14;109009;1253;63751;-63
2023/08/14 04:58:04;;;;;;;5.20;4.60;;;;;;;38.12;40.65;100894.43;108997;1253;57375;-63
2023/08/14 05:00:34;;;;;;;4.70;4.30;;;;;;;38.29;39.93;100897.37;108931;1253;57774;-63
2023/08/14 05:03:04;;;;;;;5.90;5.00;;;;;;;38.50;39.62;100895.22;108926;1253;64588;-65
2023/08/14 05:05:33;;;;;;;4.90;4.40;;;;;;;38.82;38.73;100903.48;108994;1253;67742;-63
2023/08/14 05:08:01;;;;;;;5.00;4.50;;;;;;;39.21;37.44;100900.60;109004;1253;62421;-63
2023/08/14 05:10:28;;;;;;;5.80;4.60;;;;;;;39.58;35.93;100896.71;109047;1253;61031;-63
2023/08/14 05:12:56;;;;;;;4.80;4.00;;;;;;;39.80;35.34;100898.19;108953;1253;57604;-64
2023/08/14 05:15:24;;;;;;;8.00;4.70;;;;;;;40.10;34.89;100901.20;109009;1255;64170;-63
2023/08/14 05:17:51;;;;;;;5.40;4.00;;;;;;;40.46;34.04;100899.91;108953;1253;58356;-64
2023/08/14 05:20:19;;;;;;;6.00;4.20;;;;;;;40.90;32.44;100899.30;109022;1253;63793;-63
2023/08/14 05:22:47;;;;;;;4.90;4.10;;;;;;;41.30;31.17;100896.20;109037;1253;57806;-64
2023/08/14 05:25:15;;;;;;;4.10;3.70;;;;;;;41.61;30.17;100895.47;108928;1253;57379;-66
2023/08/14 05:27:42;;;;;;;4.80;3.40;;;;;;;41.76;29.44;100892.98;109102;1253;62810;-64
2023/08/14 05:30:10;;;;;;;4.60;4.20;;;;;;;41.86;28.91;100894.34;109073;1253;58364;-63
2023/08/14 05:32:38;;;;;;;4.10;3.50;;;;;;;41.97;28.60;100891.60;109063;1253;63775;-64
2023/08/14 05:35:06;;;;;;;4.90;4.00;;;;;;;42.10;28.48;100890.02;109009;1253;60840;-65
2023/08/14 05:37:34;;;;;;;5.00;4.50;;;;;;;42.35;28.95;100895.03;109021;1253;61217;-63
2023/08/14 05:40:02;;;;;;;4.90;4.20;;;;;;;42.23;29.20;100893.94;109065;1253;65008;-63
2023/08/14 05:42:29;;;;;;;5.00;4.20;;;;;;;42.06;29.50;100896.19;109038;1253;58222;-63
2023/08/14 05:44:57;;;;;;;5.90;4.70;;;;;;;41.99;28.96;100899.35;108998;1256;63867;-65
2023/08/14 05:47:25;;;;;;;5.50;4.40;;;;;;;41.93;28.83;100904.88;109002;1253;58181;-64
2023/08/14 05:49:52;;;;;;;4.70;4.00;;;;;;;41.85;28.99;100904.98;109143;1259;58524;-63
2023/08/14 05:52:20;;;;;;;4.30;3.90;;;;;;;41.90;28.70;100906.66;109093;1253;63801;-63
2023/08/14 05:54:48;;;;;;;5.10;4.20;;;;;;;42.09;28.41;100907.95;109021;1253;58611;-66
2023/08/14 05:57:15;;;;;;;4.80;4.30;;;;;;;42.21;28.19;100912.88;109019;1253;63855;-66
2023/08/14 05:59:43;;;;;;;5.20;4.00;;;;;;;42.15;28.30;100910.88;109036;1253;58195;-64
2023/08/14 06:02:10;;;;;;;7.40;5.10;;;;;;;42.06;28.65;100906.20;109187;1255;58684;-64
2023/08/14 06:04:38;;;;;;;6.90;4.60;;;;;;;42.01;28.77;100909.46;109055;1253;65033;-63
2023/08/14 06:07:06;;;;;;;6.20;5.60;;;;;;;42.06;29.02;100910.67;109014;1253;58454;-64
2023/08/14 06:09:34;;;;;;;5.30;4.10;;;;;;;42.11;28.43;100914.29;109143;1253;71110;-64
2023/08/14 06:12:01;;;;;;;4.60;4.20;;;;;;;41.99;28.08;100913.91;109135;1253;58302;-63
2023/08/14 06:14:29;;;;;;;4.70;4.00;;;;;;;41.85;28.59;100915.53;109086;1253;58207;-64
2023/08/14 06:16:56;;;;;;;8.40;5.00;;;;;;;41.82;28.08;100917.45;109054;1253;64934;-65
2023/08/14 06:19:24;;;;;;;5.00;4.50;;;;;;;41.73;27.97;100917.45;108977;1253;58568;-66
2023/08/14 06:21:52;;;;;;;7.20;4.70;;;;;;;41.55;28.15;100918.50;109058;1254;63933;-64
2023/08/14 06:24:21;;;;;;;5.30;4.30;;;;;;;41.37;28.18;100915.58;109190;1256;58171;-64
2023/08/14 06:26:48;;;;;;;8.20;4.20;;;;;;;41.05;28.31;100920.33;109081;1253;58699;-64
2023/08/14 06:29:17;;;;;;;5.60;4.30;;;;;;;40.74;28.81;100917.94;109151;1253;65457;-65
2023/08/14 06:31:45;;;;;;;4.50;3.80;;;;;;;40.62;28.77;100921.69;109147;1253;58573;-64
2023/08/14 06:34:13;;;;;;;5.40;3.60;;;;;;;40.67;28.38;100912.85;109086;1253;62620;-64
2023/08/14 06:36:41;;;;;;;6.70;4.00;;;;;;;40.65;28.69;100914.94;109043;1253;58093;-63
2023/08/14 06:39:09;;;;;;;5.40;4.40;;;;;;;40.49;28.75;100917.37;109036;1253;58258;-66
2023/08/14 06:41:36;;;;;;;6.00;3.90;;;;;;;40.07;29.34;100919.04;109123;1256;63947;-64
2023/08/14 06:44:09;;;;;;;4.00;3.50;;;;;;;39.84;29.83;100922.51;109013;1253;58256;-63
2023/08/14 06:46:38;;;;;;;5.30;3.70;;;;;;;39.76;30.14;100925.27;109009;1253;63821;-64
2023/08/14 06:49:05;;;;;;;5.20;3.40;;;;;;;39.57;29.82;100921.88;109158;1253;58169;-66
2023/08/14 06:51:33;;;;;;;4.20;3.20;;;;;;;39.35;30.71;100922.20;108986;1253;58581;-65
2023/08/14 06:54:00;;;;;;;4.10;3.70;;;;;;;39.55;31.23;100926.52;109217;1253;64964;-67
2023/08/14 06:56:29;;;;;;;8.40;4.00;;;;;;;39.96;30.78;100920.73;109147;1253;58214;-63
2023/08/14 06:58:56;;;;;;;3.90;3.00;;;;;;;40.38;29.72;100918.86;109034;1253;63840;-65
2023/08/14 07:01:24;;;;;;;3.90;3.30;;;;;;;40.80;28.92;100918.80;109082;1253;58732;-66
2023/08/14 07:03:52;;;;;;;3.70;3.40;;;;;;;40.94;28.42;100918.39;109068;1253;58107;-64
2023/08/14 07:06:20;;;;;;;4.90;3.20;;;;;;;40.99;28.03;100915.73;109183;1253;65041;-64
2023/08/14 07:08:47;;;;;;;5.50;3.70;;;;;;;40.93;27.50;100917.14;109065;1253;58636;-64
2023/08/14 07:11:15;;;;;;;4.50;3.20;;;;;;;40.72;26.95;100919.16;109119;1253;63852;-65
2023/08/14 07:13:43;;;;;;;4.10;3.40;;;;;;;40.39;27.76;100925.52;108978;1256;59339;-64
2023/08/14 07:16:12;;;;;;;3.90;3.20;;;;;;;40.21;28.05;100925.19;109173;1253;58300;-64
2023/08/14 07:18:39;;;;;;;4.30;3.20;;;;;;;39.84;27.88;100930.38;109059;1258;64960;-64
2023/08/14 07:21:07;;;;;;;4.10;3.20;;;;;;;39.23;28.59;100931.71;109307;1251;58354;-66
2023/08/14 07:23:36;;;;;;;3.00;2.40;;;;;;;38.75;29.22;100935.35;109246;1256;63817;-65
2023/08/14 07:26:11;;;;;;;3.80;2.10;;;;;;;38.29;28.25;100932.38;109291;1254;58674;-64
2023/08/14 07:28:39;;;;;;;3.80;2.40;;;;;;;37.59;27.90;100940.01;109349;1252;60611;-64
2023/08/14 07:31:07;;;;;;;3.00;1.70;;;;;;;36.93;28.35;100941.69;109257;1251;65038;-66
2023/08/14 07:33:35;;;;;;;3.00;1.70;;;;;;;36.39;27.98;100937.05;109337;1251;66719;-64
2023/08/14 07:36:03;;;;;;;3.30;1.70;;;;;;;36.25;28.79;100940.27;109344;1251;63848;-64
2023/08/14 07:38:31;;;;;;;2.70;1.70;;;;;;;36.45;29.38;100937.56;109318;1253;58164;-64
2023/08/14 07:40:59;;;;;;;2.90;1.90;;;;;;;36.90;29.20;100937.11;109280;1251;58263;-66
2023/08/14 07:43:26;;;;;;;3.30;1.60;;;;;;;37.41;28.93;100936.12;109257;1253;63758;-66
2023/08/14 07:45:54;;;;;;;2.30;1.50;;;;;;;37.83;28.56;100934.41;109352;1251;58190;-64
2023/08/14 07:48:22;;;;;;;2.20;1.20;;;;;;;38.14;28.26;100934.30;109325;1251;63711;-64
2023/08/14 07:50:53;;;;;;;4.20;1.70;;;;;;;38.54;27.62;100932.40;109329;1255;58333;-66
2023/08/14 07:53:21;;;;;;;2.70;1.50;;;;;;;39.01;27.08;100934.55;109310;1251;58252;-66
2023/08/14 07:55:49;;;;;;;2.00;1.30;;;;;;;39.39;26.42;100935.84;109397;1251;64804;-65
2023/08/14 07:58:17;;;;;;;3.00;1.60;;;;;;;39.69;26.08;100936.05;109343;1251;58592;-65
2023/08/14 08:00:45;;;;;;;2.10;1.60;;;;;;;39.91;24.89;100935.50;109355;1253;62443;-66
2023/08/14 08:03:13;;;;;;;3.20;1.60;;;;;;;40.09;24.16;100927.52;109343;1251;58672;-66
2023/08/14 08:05:40;;;;;;;3.00;1.70;;;;;;;40.37;23.97;100922.59;109311;1252;58663;-64
2023/08/14 08:08:08;;;;;;;4.20;2.00;;;;;;;40.67;24.21;100918.41;109343;1251;63709;-64
2023/08/14 08:10:36;;;;;;;2.90;2.10;;;;;;;40.78;23.87;100920.87;109377;1251;58208;-64
2023/08/14 08:13:04;;;;;;;3.00;1.80;;;;;;;40.77;23.50;100918.84;109325;1251;62521;-66
2023/08/14 08:15:32;;;;;;;7.40;2.90;;;;;;;40.83;23.54;100917.49;109349;1253;58404;-64
2023/08/14 08:17:59;;;;;;;4.90;1.90;;;;;;;41.00;23.51;100925.04;109377;1251;58926;-64
2023/08/14 08:20:27;;;;;;;2.90;1.80;;;;;;;41.04;23.04;100921.35;109392;1251;65202;-64
2023/08/14 08:22:55;;;;;;;2.30;1.70;;;;;;;41.12;22.98;100921.20;109298;1251;58208;-65
2023/08/14 08:25:23;;;;;;;2.70;1.70;;;;;;;41.15;23.28;100922.48;109347;1251;63834;-66
2023/08/14 08:27:50;;;;;;;2.60;1.90;;;;;;;40.95;23.32;100923.42;109310;1253;58555;-64
2023/08/14 08:30:18;;;;;;;2.60;1.70;;;;;;;40.83;23.45;100923.27;109357;1251;58670;-64
2023/08/14 08:32:46;;;;;;;2.90;2.00;;;;;;;40.80;23.32;100925.11;109366;1251;63711;-65
2023/08/14 08:35:13;;;;;;;4.90;1.60;;;;;;;40.87;23.57;100922.14;109359;1252;58399;-65
2023/08/14 08:37:41;;;;;;;2.20;1.50;;;;;;;41.16;23.27;100914.19;109348;1251;63892;-64
2023/08/14 08:40:09;;;;;;;2.00;1.70;;;;;;;41.30;22.77;100916.77;109331;1257;58270;-64
2023/08/14 08:42:37;;;;;;;2.50;1.50;;;;;;;41.25;22.82;100915.30;109124;1258;58180;-66
2023/08/14 08:45:06;;;;;;;2.50;1.70;;;;;;;40.73;23.34;100916.51;109315;1251;63721;-64
2023/08/14 08:47:36;;;;;;;3.20;1.40;;;;;;;40.31;24.10;100922.22;109321;1251;58979;-64
2023/08/14 08:50:04;;;;;;;3.20;1.60;;;;;;;40.23;23.40;100920.54;109148;1251;63753;-64
2023/08/14 08:52:35;;;;;;;2.90;1.40;;;;;;;39.83;23.52;100920.52;109317;1251;58636;-65
2023/08/14 08:55:03;;;;;;;3.50;1.40;;;;;;;39.32;24.47;100922.30;109343;1251;58145;-66
2023/08/14 08:57:31;;;;;;;2.10;1.40;;;;;;;39.03;25.69;100918.55;109112;1251;65475;-64
2023/08/14 08:59:59;;;;;;;3.70;1.60;;;;;;;39.06;25.91;100917.38;109367;1251;58573;-64
2023/08/14 09:02:27;;;;;;;3.00;1.60;;;;;;;39.38;25.38;100917.95;109336;1251;64017;-64
2023/08/14 09:04:55;;;;;;;2.80;1.40;;;;;;;39.76;24.80;100919.10;109292;1251;58163;-66
2023/08/14 09:07:23;;;;;;;2.60;1.40;;;;;;;40.02;24.35;100915.91;109380;1251;58268;-64
2023/08/14 09:09:50;;;;;;;3.30;1.40;;;;;;;40.13;25.21;100917.03;109326;1251;63825;-64
2023/08/14 09:12:18;;;;;;;2.10;1.40;;;;;;;40.18;24.99;100915.16;109369;1251;58257;-64
2023/08/14 09:15:03;;;;;;;2.70;1.60;;;;;;;40.20;25.07;100915.03;109388;1253;63771;-64
2023/08/14 09:17:31;;;;;;;3.00;1.50;;;;;;;40.11;24.83;100916.84;109345;1251;58711;-63
2023/08/14 09:19:59;;;;;;;3.50;1.60;;;;;;;39.76;24.64;100919.71;109363;1251;58212;-64
2023/08/14 09:22:32;;;;;;;2.60;1.50;;;;;;;39.30;25.08;100917.74;109281;1251;64942;-66
2023/08/14 09:24:59;;;;;;;3.00;1.70;;;;;;;39.08;25.93;100916.71;109313;1251;58591;-66
2023/08/14 09:27:27;;;;;;;2.50;1.70;;;;;;;39.07;26.21;100918.56;109117;1250;62533;-64
2023/08/14 09:29:55;;;;;;;2.90;1.20;;;;;;;38.98;26.04;100917.91;109372;1253;58104;-63
2023/08/14 09:32:23;;;;;;;2.60;1.30;;;;;;;39.01;25.86;100912.45;109377;1251;58282;-64
2023/08/14 09:34:58;;;;;;;3.00;1.50;;;;;;;38.94;25.50;100911.69;109257;1251;65007;-65
2023/08/14 09:37:26;;;;;;;3.10;1.60;;;;;;;38.82;26.24;100909.27;109298;1256;58612;-64
2023/08/14 09:40:14;;;;;;;2.90;1.60;;;;;;;38.88;27.33;100905.04;109316;1251;63822;-62
2023/08/14 09:42:47;;;;;;;2.80;1.50;;;;;;;39.09;26.89;100908.46;109325;1251;60461;-64
2023/08/14 09:45:19;;;;;;;2.00;1.50;;;;;;;39.14;26.90;100907.39;109356;1251;58303;-64
2023/08/14 09:47:46;;;;;;;3.40;1.80;;;;;;;39.12;26.81;100908.52;109360;1251;65135;-64
2023/08/14 09:50:19;;;;;;;2.90;1.50;;;;;;;38.98;25.62;100909.80;109288;1251;58730;-65
2023/08/14 09:52:47;;;;;;;2.40;1.50;;;;;;;38.61;25.48;100908.80;109330;1251;63478;-64
2023/08/14 09:55:15;;;;;;;3.40;1.80;;;;;;;38.15;25.95;100909.29;109331;1253;58713;-63
2023/08/14 09:57:43;;;;;;;1.90;1.20;;;;;;;37.81;26.69;100907.38;109395;1251;58174;-63
2023/08/14 10:00:12;;;;;;;2.70;1.50;;;;;;;37.71;28.04;100913.95;109293;1251;63610;-66
2023/08/14 10:02:40;;;;;;;2.50;1.70;;;;;;;37.43;28.11;100917.45;109299;1251;58759;-65
2023/08/14 10:05:09;;;;;;;2.20;1.60;;;;;;;37.24;28.37;100913.52;109118;1258;63837;-64
2023/08/14 10:07:38;;;;;;;2.20;1.50;;;;;;;37.43;28.57;100917.61;109360;1253;58281;-64
2023/08/14 10:10:07;;;;;;;3.70;1.90;;;;;;;37.67;28.12;100911.21;109340;1251;58224;-64
2023/08/14 10:12:43;;;;;;;2.80;1.60;;;;;;;37.80;27.85;100909.75;109283;1251;65872;-65
2023/08/14 10:15:13;;;;;;;2.50;1.80;;;;;;;37.88;27.29;100907.63;109339;1251;58869;-64
2023/08/14 10:17:49;;;;;;;3.60;1.60;;;;;;;37.84;27.57;100904.18;109148;1251;63924;-65
2023/08/14 10:20:17;;;;;;;2.50;1.70;;;;;;;37.84;26.78;100900.36;109257;1251;58208;-66
2023/08/14 10:22:45;;;;;;;3.10;1.70;;;;;;;37.90;26.95;100897.41;109134;1251;58578;-64
2023/08/14 10:25:13;;;;;;;2.70;1.60;;;;;;;38.06;27.08;100898.96;109339;1252;65071;-64
2023/08/14 10:27:41;;;;;;;2.80;1.50;;;;;;;38.18;27.41;100896.49;109316;1256;58513;-65
2023/08/14 10:30:09;;;;;;;3.40;1.30;;;;;;;38.33;26.83;100896.55;109270;1253;63832;-64
2023/08/14 10:32:37;;;;;;;2.30;1.40;;;;;;;38.40;26.81;100895.30;109250;1251;58401;-65
2023/08/14 10:35:05;;;;;;;2.60;1.60;;;;;;;38.44;26.93;100899.91;109144;1257;58672;-65
2023/08/14 10:37:43;;;;;;;3.20;2.00;;;;;;;38.40;27.39;100898.20;109144;1251;65483;-65
2023/08/14 10:40:26;;;;;;;2.60;1.30;;;;;;;38.47;26.92;100892.73;109342;1251;58371;-64
2023/08/14 10:42:58;;;;;;;4.70;1.90;;;;;;;38.54;26.93;100893.96;109360;1252;62424;-64
2023/08/14 10:45:26;;;;;;;4.10;1.70;;;;;;;38.40;27.34;100895.61;109219;1251;58111;-65
2023/08/14 10:48:08;;;;;;;3.50;1.60;;;;;;;38.22;27.45;100895.29;109314;1251;58116;-66
2023/08/14 10:50:35;;;;;;;3.80;2.50;;;;;;;38.30;27.27;100893.44;109332;1251;65041;-64
2023/08/14 10:53:04;;;;;;;5.00;1.80;;;;;;;38.39;27.22;100891.94;109292;1251;58713;-66
2023/08/14 10:55:37;;;;;;;3.00;1.70;;;;;;;38.23;27.17;100887.66;109297;1251;73556;-64
2023/08/14 10:58:28;;;;;;;4.80;1.90;;;;;;;37.99;27.26;100893.52;109270;1251;58240;-66
2023/08/14 11:00:55;;;;;;;2.20;1.30;;;;;;;37.97;27.25;100893.08;109191;1253;58197;-65
2023/08/14 11:03:23;;;;;;;2.80;1.50;;;;;;;38.07;26.99;100893.38;109383;1251;65111;-64
2023/08/14 11:05:51;;;;;;;3.50;1.60;;;;;;;38.15;26.98;100892.31;109300;1256;59044;-66
2023/08/14 11:08:20;;;;;;;3.10;1.70;;;;;;;38.22;26.88;100885.31;109337;1251;63829;-64
2023/08/14 11:10:49;;;;;;;3.10;1.70;;;;;;;38.34;26.85;100888.09;109082;1254;58383;-66
2023/08/14 11:13:16;;;;;;;2.00;1.60;;;;;;;38.39;27.17;100882.52;109323;1252;58159;-65
2023/08/14 11:15:44;;;;;;;2.80;1.70;;;;;;;38.39;27.28;100880.80;109260;1251;64935;-65
2023/08/14 11:18:12;;;;;;;4.00;1.70;;;;;;;38.45;27.23;100876.73;109373;1251;58565;-64
2023/08/14 11:20:45;;;;;;;2.80;1.70;;;;;;;38.52;27.35;100883.48;109272;1254;63909;-66
2023/08/14 11:23:12;;;;;;;3.40;2.20;;;;;;;38.38;26.96;100879.67;109330;1251;58468;-64
2023/08/14 11:25:40;;;;;;;3.00;1.80;;;;;;;37.69;27.31;100881.34;109326;1251;58562;-65
2023/08/14 11:28:08;;;;;;;2.90;1.70;;;;;;;37.05;29.13;100881.00;109332;1256;63751;-65